createdAt,value
2024-02-02T00:00:11.142Z,4.13
2024-02-02T00:02:40.363Z,4.14
2024-02-02T00:05:10.339Z,4.06
2024-02-02T00:07:40.257Z,3.67
2024-02-02T00:10:09.946Z,3.84
2024-02-02T00:12:38.549Z,3.63
2024-02-02T00:15:08.179Z,3.83
2024-02-02T00:17:36.673Z,3.63
2024-02-02T00:20:06.400Z,3.94
2024-02-02T00:22:35.022Z,3.97
2024-02-02T00:25:05.511Z,4.02
2024-02-02T00:27:34.256Z,3.98
2024-02-02T00:30:02.940Z,4.16
2024-02-02T00:32:31.615Z,4.18
2024-02-02T00:35:00.371Z,4.14
2024-02-02T00:37:28.918Z,4.21
2024-02-02T00:39:57.417Z,4.25
2024-02-02T00:42:27.639Z,4.22
2024-02-02T00:44:56.319Z,4.01
2024-02-02T00:47:24.854Z,4.30
2024-02-02T00:49:53.487Z,4.13
2024-02-02T00:52:22.012Z,4.10
2024-02-02T00:54:50.931Z,4.34
2024-02-02T00:57:19.560Z,4.31
2024-02-02T00:59:51.648Z,4.12
2024-02-02T01:02:20.625Z,4.11
2024-02-02T01:04:49.435Z,4.24
2024-02-02T01:07:18.968Z,4.13
2024-02-02T01:09:47.908Z,4.31
2024-02-02T01:12:16.586Z,4.44
2024-02-02T01:14:45.120Z,4.16
2024-02-02T01:17:15.171Z,4.40
2024-02-02T01:19:43.703Z,4.16
2024-02-02T01:22:12.294Z,4.08
2024-02-02T01:24:40.934Z,4.29
2024-02-02T01:27:09.863Z,4.20
2024-02-02T01:29:38.401Z,4.12
2024-02-02T01:32:08.238Z,4.14
2024-02-02T01:34:38.223Z,4.12
2024-02-02T01:37:06.951Z,4.22
2024-02-02T01:39:35.685Z,4.28
2024-02-02T01:42:04.866Z,4.34
2024-02-02T01:44:33.532Z,4.46
2024-02-02T01:47:04.051Z,4.32
2024-02-02T01:49:32.992Z,4.38
2024-02-02T01:52:03.578Z,4.39
2024-02-02T01:54:33.391Z,4.23
2024-02-02T01:57:02.091Z,4.42
2024-02-02T01:59:31.282Z,4.37
2024-02-02T02:02:00.223Z,4.36
2024-02-02T02:04:29.109Z,4.25
2024-02-02T02:06:58.131Z,4.23
2024-02-02T02:09:28.445Z,4.17
2024-02-02T02:11:58.121Z,4.12
2024-02-02T02:14:26.779Z,3.91
2024-02-02T02:16:55.613Z,4.02
2024-02-02T02:19:24.586Z,4.11
2024-02-02T02:21:54.687Z,4.15
2024-02-02T02:24:23.406Z,4.06
2024-02-02T02:26:52.318Z,4.11
2024-02-02T02:29:20.816Z,4.29
2024-02-02T02:31:55.900Z,4.45
2024-02-02T02:34:27.805Z,4.19
2024-02-02T02:36:57.988Z,4.38
2024-02-02T02:39:26.484Z,3.97
2024-02-02T02:41:55.125Z,4.11
2024-02-02T02:44:23.681Z,3.98
2024-02-02T02:46:52.810Z,4.09
2024-02-02T02:49:21.892Z,4.23
2024-02-02T02:51:50.894Z,4.13
2024-02-02T02:54:20.755Z,3.98
2024-02-02T02:56:49.376Z,4.05
2024-02-02T02:59:19.380Z,4.11
2024-02-02T03:01:48.518Z,4.04
2024-02-02T03:04:17.203Z,4.11
2024-02-02T03:06:46.018Z,3.80
2024-02-02T03:09:15.150Z,3.71
2024-02-02T03:11:45.051Z,3.82
2024-02-02T03:14:13.762Z,3.58
2024-02-02T03:16:42.313Z,3.62
2024-02-02T03:19:10.942Z,3.76
2024-02-02T03:21:39.532Z,3.52
2024-02-02T03:24:10.719Z,3.61
2024-02-02T03:26:39.375Z,3.47
2024-02-02T03:29:09.375Z,3.41
2024-02-02T03:31:37.943Z,3.41
2024-02-02T03:34:06.583Z,3.43
2024-02-02T03:36:35.353Z,3.35
2024-02-02T03:39:04.368Z,3.37
2024-02-02T03:41:33.150Z,3.37
2024-02-02T03:44:01.622Z,3.38
2024-02-02T03:46:31.540Z,3.32
2024-02-02T03:49:01.299Z,3.10
2024-02-02T03:51:29.996Z,3.26
2024-02-02T03:53:58.673Z,3.29
2024-02-02T03:56:28.034Z,3.24
2024-02-02T03:58:56.518Z,3.45
2024-02-02T04:01:25.432Z,3.49
2024-02-02T04:03:55.459Z,3.32
2024-02-02T04:06:24.068Z,3.18
2024-02-02T04:08:52.770Z,3.27
2024-02-02T04:11:21.273Z,3.25
2024-02-02T04:13:50.037Z,3.39
2024-02-02T04:16:18.590Z,3.32
2024-02-02T04:18:47.496Z,3.35
2024-02-02T04:21:17.570Z,3.43
2024-02-02T04:23:46.224Z,3.31
2024-02-02T04:26:14.751Z,3.26
2024-02-02T04:28:43.384Z,3.37
2024-02-02T04:31:12.264Z,3.32
2024-02-02T04:33:40.889Z,3.38
2024-02-02T04:36:10.339Z,3.47
2024-02-02T04:38:40.681Z,3.34
2024-02-02T04:41:09.120Z,3.39
2024-02-02T04:43:37.751Z,3.66
2024-02-02T04:46:07.049Z,3.04
2024-02-02T04:48:35.711Z,3.72
2024-02-02T04:51:04.225Z,3.71
2024-02-02T04:53:32.723Z,3.60
2024-02-02T04:56:02.616Z,3.43
2024-02-02T04:58:31.361Z,3.29
2024-02-02T05:00:59.963Z,3.34
2024-02-02T05:03:31.776Z,3.49
2024-02-02T05:06:00.704Z,3.30
2024-02-02T05:08:29.625Z,3.19
2024-02-02T05:10:58.095Z,3.21
2024-02-02T05:13:28.664Z,3.28
2024-02-02T05:15:57.349Z,3.17
2024-02-02T05:18:26.013Z,3.11
2024-02-02T05:20:54.712Z,3.09
2024-02-02T05:23:24.249Z,3.03
2024-02-02T05:25:52.826Z,3.22
2024-02-02T05:28:21.420Z,3.07
2024-02-02T05:30:51.438Z,3.03
2024-02-02T05:33:20.132Z,3.11
2024-02-02T05:35:48.951Z,3.02
2024-02-02T05:38:17.453Z,3.17
2024-02-02T05:40:45.963Z,3.10
2024-02-02T05:43:15.066Z,3.07
2024-02-02T05:45:43.957Z,3.05
2024-02-02T05:48:14.177Z,2.28
2024-02-02T05:50:43.295Z,2.62
2024-02-02T05:53:11.770Z,2.95
2024-02-02T05:55:40.546Z,2.99
2024-02-02T05:58:09.219Z,3.08
2024-02-02T06:00:38.355Z,3.06
2024-02-02T06:03:07.309Z,2.80
2024-02-02T06:05:40.131Z,3.02
2024-02-02T06:08:09.121Z,3.01
2024-02-02T06:10:37.683Z,3.02
2024-02-02T06:13:06.490Z,3.07
2024-02-02T06:15:35.134Z,3.04
2024-02-02T06:18:03.814Z,3.13
2024-02-02T06:20:32.388Z,3.14
2024-02-02T06:23:04.208Z,3.16
2024-02-02T06:25:33.372Z,3.33
2024-02-02T06:28:03.253Z,3.23
2024-02-02T06:30:32.073Z,3.19
2024-02-02T06:33:02.031Z,3.41
2024-02-02T06:35:31.693Z,3.39
2024-02-02T06:38:01.741Z,3.38
2024-02-02T06:40:30.414Z,3.40
2024-02-02T06:42:59.137Z,3.37
2024-02-02T06:45:28.613Z,3.43
2024-02-02T06:47:57.479Z,3.59
2024-02-02T06:50:26.277Z,3.47
2024-02-02T06:52:55.251Z,3.51
2024-02-02T06:55:26.008Z,3.48
2024-02-02T06:57:55.086Z,3.62
2024-02-02T07:00:24.312Z,3.67
2024-02-02T07:02:53.237Z,3.53
2024-02-02T07:05:23.477Z,3.66
2024-02-02T07:07:52.514Z,3.49
2024-02-02T07:10:24.678Z,3.74
2024-02-02T07:13:00.530Z,3.66
2024-02-02T07:15:34.041Z,3.56
2024-02-02T07:18:04.772Z,3.82
2024-02-02T07:21:05.667Z,3.67
2024-02-02T07:23:40.769Z,3.94
2024-02-02T07:26:27.962Z,3.66
2024-02-02T07:28:57.325Z,3.85
2024-02-02T07:31:43.210Z,3.88
2024-02-02T07:34:40.677Z,3.91
2024-02-02T07:37:13.757Z,4.02
2024-02-02T07:39:42.392Z,4.04
2024-02-02T07:42:12.284Z,4.02
2024-02-02T07:44:40.874Z,4.20
2024-02-02T07:47:09.423Z,4.30
2024-02-02T07:49:38.223Z,4.19
2024-02-02T07:52:07.795Z,4.36
2024-02-02T07:54:36.453Z,4.37
2024-02-02T07:57:05.595Z,4.23
2024-02-02T07:59:35.615Z,3.90
2024-02-02T08:02:04.315Z,4.17
2024-02-02T08:04:32.844Z,4.58
2024-02-02T08:07:01.520Z,4.51
2024-02-02T08:09:30.220Z,4.54
2024-02-02T08:11:59.090Z,4.43
2024-02-02T08:14:27.588Z,4.64
2024-02-02T08:16:57.642Z,4.68
2024-02-02T08:19:26.533Z,4.74
2024-02-02T08:21:57.145Z,4.87
2024-02-02T08:24:25.757Z,4.90
2024-02-02T08:26:54.524Z,4.92
2024-02-02T08:29:23.510Z,4.63
2024-02-02T08:31:52.708Z,4.68
2024-02-02T08:34:22.761Z,4.75
2024-02-02T08:36:51.641Z,4.93
2024-02-02T08:39:20.180Z,5.09
2024-02-02T08:41:48.971Z,5.16
2024-02-02T08:44:28.303Z,5.08
2024-02-02T08:46:57.482Z,5.06
2024-02-02T08:49:48.594Z,4.98
2024-02-02T08:52:32.334Z,4.98
2024-02-02T08:55:00.668Z,5.13
2024-02-02T08:57:52.119Z,5.22
2024-02-02T09:00:40.637Z,5.21
2024-02-02T09:03:27.557Z,5.16
2024-02-02T09:05:59.985Z,5.04
2024-02-02T09:08:47.749Z,5.48
2024-02-02T09:11:21.264Z,5.26
2024-02-02T09:13:53.388Z,5.01
2024-02-02T09:16:22.728Z,5.15
2024-02-02T09:18:57.875Z,5.37
2024-02-02T09:21:35.139Z,5.48
2024-02-02T09:24:05.694Z,5.55
2024-02-02T09:26:40.256Z,5.55
2024-02-02T09:29:11.759Z,5.45
2024-02-02T09:31:41.001Z,5.57
2024-02-02T09:34:11.972Z,5.62
2024-02-02T09:36:42.144Z,5.52
2024-02-02T09:39:54.817Z,5.51
2024-02-02T09:43:07.169Z,5.68
2024-02-02T09:46:02.125Z,5.70
2024-02-02T09:48:52.145Z,5.79
2024-02-02T09:51:36.341Z,5.92
2024-02-02T09:54:19.654Z,6.06
2024-02-02T09:57:01.657Z,6.15
2024-02-02T09:59:47.595Z,6.17
2024-02-02T10:02:54.059Z,5.96
2024-02-02T10:05:37.463Z,5.84
2024-02-02T10:08:30.781Z,5.92
2024-02-02T10:11:23.966Z,6.17
2024-02-02T10:14:14.074Z,6.39
2024-02-02T10:16:56.805Z,6.43
2024-02-02T10:20:05.767Z,6.31
2024-02-02T10:23:00.389Z,6.38
2024-02-02T10:25:54.073Z,6.34
2024-02-02T10:28:41.160Z,6.00
2024-02-02T10:31:30.241Z,6.18
2024-02-02T10:34:21.018Z,6.03
2024-02-02T10:37:25.177Z,5.96
2024-02-02T10:40:23.345Z,6.19
2024-02-02T10:43:26.503Z,6.35
2024-02-02T10:46:20.242Z,6.34
2024-02-02T10:49:10.022Z,6.15
2024-02-02T10:51:49.044Z,6.40
2024-02-02T10:54:37.719Z,6.43
2024-02-02T10:57:24.170Z,6.37
2024-02-02T11:00:09.661Z,6.77
2024-02-02T11:03:08.748Z,6.77
2024-02-02T11:05:43.660Z,6.51
2024-02-02T11:08:19.346Z,6.46
2024-02-02T11:10:59.618Z,6.58
2024-02-02T11:13:41.818Z,6.70
2024-02-02T11:16:29.328Z,6.76
2024-02-02T11:19:19.288Z,7.12
2024-02-02T11:22:08.817Z,7.17
2024-02-02T11:24:53.990Z,7.26
2024-02-02T11:27:29.431Z,7.28
2024-02-02T11:30:07.440Z,7.44
2024-02-02T11:33:08.467Z,7.38
2024-02-02T11:35:51.923Z,7.42
2024-02-02T11:38:33.517Z,7.37
2024-02-02T11:41:03.551Z,7.39
2024-02-02T11:43:33.330Z,7.34
2024-02-02T11:46:05.049Z,7.45
2024-02-02T11:48:38.464Z,7.44
2024-02-02T11:51:09.486Z,7.31
2024-02-02T11:53:49.657Z,7.33
2024-02-02T11:56:26.672Z,7.19
2024-02-02T11:59:05.697Z,7.02
2024-02-02T12:01:47.351Z,7.04
2024-02-02T12:04:33.532Z,7.22
2024-02-02T12:07:28.060Z,7.28
2024-02-02T12:10:05.168Z,7.42
2024-02-02T12:12:37.553Z,7.51
2024-02-02T12:15:11.002Z,7.31
2024-02-02T12:17:40.858Z,7.32
2024-02-02T12:20:18.924Z,7.61
2024-02-02T12:22:51.182Z,7.62
2024-02-02T12:25:20.434Z,7.51
2024-02-02T12:27:49.283Z,7.69
2024-02-02T12:30:18.147Z,7.33
2024-02-02T12:32:55.664Z,7.70
2024-02-02T12:35:25.710Z,7.93
2024-02-02T12:37:57.072Z,7.83
2024-02-02T12:40:26.617Z,7.82
2024-02-02T12:42:59.611Z,7.73
2024-02-02T12:45:29.182Z,8.00
2024-02-02T12:47:59.308Z,8.26
2024-02-02T12:50:28.091Z,8.23
2024-02-02T12:52:59.529Z,8.30
2024-02-02T12:55:28.162Z,8.50
2024-02-02T12:57:56.917Z,8.29
2024-02-02T13:00:26.787Z,8.12
2024-02-02T13:02:56.670Z,8.42
2024-02-02T13:05:27.830Z,8.38
2024-02-02T13:07:58.370Z,8.30
2024-02-02T13:10:41.286Z,8.21
2024-02-02T13:13:15.370Z,8.55
2024-02-02T13:15:44.272Z,8.81
2024-02-02T13:18:16.221Z,8.79
2024-02-02T13:20:47.618Z,8.99
2024-02-02T13:23:26.314Z,9.09
2024-02-02T13:25:59.624Z,9.30
2024-02-02T13:28:30.571Z,8.96
2024-02-02T13:31:00.680Z,8.95
2024-02-02T13:33:31.244Z,8.85
2024-02-02T13:36:02.646Z,8.65
2024-02-02T13:38:34.627Z,8.65
2024-02-02T13:41:05.603Z,8.81
2024-02-02T13:43:36.608Z,9.02
2024-02-02T13:46:08.545Z,8.85
2024-02-02T13:48:40.478Z,9.07
2024-02-02T13:51:11.387Z,8.94
2024-02-02T13:53:41.558Z,9.18
2024-02-02T13:56:11.774Z,9.11
2024-02-02T13:58:41.804Z,9.13
2024-02-02T14:01:15.993Z,9.10
2024-02-02T14:03:46.657Z,9.36
2024-02-02T14:06:16.890Z,9.30
2024-02-02T14:08:49.261Z,9.13
2024-02-02T14:11:24.814Z,9.21
2024-02-02T14:13:54.209Z,9.20
2024-02-02T14:16:24.434Z,9.21
2024-02-02T14:19:02.981Z,9.15
2024-02-02T14:21:34.540Z,9.05
2024-02-02T14:24:12.207Z,9.24
2024-02-02T14:26:51.631Z,9.17
2024-02-02T14:29:20.866Z,9.36
2024-02-02T14:31:50.048Z,9.36
2024-02-02T14:34:19.080Z,9.49
2024-02-02T14:36:48.167Z,9.41
2024-02-02T14:39:26.224Z,9.44
2024-02-02T14:41:56.137Z,8.83
2024-02-02T14:44:25.607Z,9.10
2024-02-02T14:46:54.351Z,9.14
2024-02-02T14:49:25.394Z,8.81
2024-02-02T14:51:55.066Z,9.43
2024-02-02T14:54:25.756Z,9.74
2024-02-02T14:56:54.698Z,9.80
2024-02-02T14:59:29.933Z,9.86
2024-02-02T15:01:59.137Z,9.71
2024-02-02T15:04:27.685Z,9.81
2024-02-02T15:06:56.535Z,9.76
2024-02-02T15:09:27.469Z,9.64
2024-02-02T15:11:59.825Z,9.63
2024-02-02T15:14:33.545Z,9.71
2024-02-02T15:17:02.946Z,9.59
2024-02-02T15:19:31.740Z,9.68
2024-02-02T15:22:00.520Z,9.69
2024-02-02T15:24:31.909Z,9.68
2024-02-02T15:27:02.861Z,9.60
2024-02-02T15:29:33.325Z,9.38
2024-02-02T15:32:03.461Z,9.29
2024-02-02T15:34:32.565Z,9.38
2024-02-02T15:37:01.444Z,9.45
2024-02-02T15:39:37.858Z,9.42
2024-02-02T15:42:08.084Z,9.33
2024-02-02T15:44:37.386Z,9.21
2024-02-02T15:47:07.131Z,9.34
2024-02-02T15:49:36.129Z,9.36
2024-02-02T15:52:05.459Z,9.40
2024-02-02T15:54:35.607Z,9.57
2024-02-02T15:57:05.629Z,9.52
2024-02-02T15:59:34.589Z,9.19
2024-02-02T16:02:05.290Z,9.38
2024-02-02T16:04:34.604Z,9.29
2024-02-02T16:07:06.804Z,9.21
2024-02-02T16:09:42.506Z,9.28
2024-02-02T16:12:14.143Z,9.38
2024-02-02T16:14:43.845Z,9.30
2024-02-02T16:17:12.843Z,9.15
2024-02-02T16:19:41.611Z,9.09
2024-02-02T16:22:10.861Z,9.38
2024-02-02T16:24:40.936Z,9.23
2024-02-02T16:27:09.693Z,9.22
2024-02-02T16:29:38.357Z,9.10
2024-02-02T16:32:08.227Z,8.90
2024-02-02T16:34:37.197Z,8.83
2024-02-02T16:37:06.184Z,9.07
2024-02-02T16:39:34.960Z,8.87
2024-02-02T16:42:05.154Z,8.90
2024-02-02T16:44:33.651Z,8.65
2024-02-02T16:47:03.681Z,8.67
2024-02-02T16:49:32.529Z,8.67
2024-02-02T16:52:01.427Z,8.83
2024-02-02T16:54:31.725Z,9.08
2024-02-02T16:57:00.660Z,9.00
2024-02-02T16:59:30.907Z,8.83
2024-02-02T17:01:59.491Z,9.03
2024-02-02T17:04:28.187Z,9.01
2024-02-02T17:06:57.382Z,9.10
2024-02-02T17:09:26.128Z,8.86
2024-02-02T17:11:54.951Z,8.84
2024-02-02T17:14:23.634Z,8.96
2024-02-02T17:16:53.579Z,8.84
2024-02-02T17:19:22.311Z,8.93
2024-02-02T17:21:50.948Z,8.94
2024-02-02T17:24:19.634Z,8.98
2024-02-02T17:26:50.480Z,9.01
2024-02-02T17:29:19.215Z,9.04
2024-02-02T17:31:48.963Z,8.94
2024-02-02T17:34:19.213Z,8.82
2024-02-02T17:36:48.057Z,8.70
2024-02-02T17:39:16.816Z,8.70
2024-02-02T17:41:45.515Z,8.75
2024-02-02T17:44:15.135Z,8.53
2024-02-02T17:46:45.305Z,8.72
2024-02-02T17:49:14.088Z,8.75
2024-02-02T17:51:44.967Z,8.85
2024-02-02T17:54:14.170Z,8.76
2024-02-02T17:56:43.111Z,8.84
2024-02-02T17:59:11.904Z,8.50
2024-02-02T18:01:40.784Z,8.69
2024-02-02T18:04:09.750Z,8.44
2024-02-02T18:06:38.410Z,8.70
2024-02-02T18:09:08.700Z,8.07
2024-02-02T18:11:37.378Z,8.37
2024-02-02T18:14:06.010Z,8.54
2024-02-02T18:16:37.025Z,8.57
2024-02-02T18:19:05.717Z,8.49
2024-02-02T18:21:34.616Z,8.51
2024-02-02T18:24:04.131Z,8.64
2024-02-02T18:26:34.258Z,8.59
2024-02-02T18:29:03.470Z,8.51
2024-02-02T18:31:32.354Z,8.44
2024-02-02T18:34:01.110Z,8.40
2024-02-02T18:36:29.917Z,8.26
2024-02-02T18:38:58.528Z,8.35
2024-02-02T18:41:29.981Z,8.40
2024-02-02T18:44:00.344Z,7.98
2024-02-02T18:46:31.168Z,8.09
2024-02-02T18:49:00.497Z,8.04
2024-02-02T18:51:29.490Z,8.31
2024-02-02T18:53:58.098Z,8.15
2024-02-02T18:56:26.969Z,7.91
2024-02-02T18:58:55.714Z,8.12
2024-02-02T19:01:26.867Z,7.97
2024-02-02T19:03:55.753Z,8.25
2024-02-02T19:06:25.224Z,7.97
2024-02-02T19:08:55.499Z,7.84
2024-02-02T19:11:24.309Z,7.84
2024-02-02T19:13:53.246Z,7.88
2024-02-02T19:16:23.982Z,7.85
2024-02-02T19:18:54.741Z,8.16
2024-02-02T19:21:26.366Z,7.89
2024-02-02T19:23:55.997Z,7.77
2024-02-02T19:26:25.101Z,7.98
2024-02-02T19:28:54.277Z,7.80
2024-02-02T19:31:24.342Z,7.69
2024-02-02T19:33:54.850Z,7.65
2024-02-02T19:36:25.628Z,7.65
2024-02-02T19:38:55.931Z,7.77
2024-02-02T19:41:26.618Z,7.77
2024-02-02T19:43:55.630Z,7.78
2024-02-02T19:46:25.885Z,7.86
2024-02-02T19:48:58.299Z,7.92
2024-02-02T19:51:28.943Z,7.73
2024-02-02T19:53:58.128Z,7.92
2024-02-02T19:56:27.138Z,7.91
2024-02-02T19:58:56.878Z,8.05
2024-02-02T20:01:26.509Z,8.07
2024-02-02T20:03:57.329Z,7.78
2024-02-02T20:06:26.246Z,7.68
2024-02-02T20:08:54.876Z,7.52
2024-02-02T20:11:26.632Z,7.61
2024-02-02T20:13:55.528Z,7.75
2024-02-02T20:16:24.174Z,7.83
2024-02-02T20:18:52.854Z,7.86
2024-02-02T20:21:24.874Z,7.82
2024-02-02T20:23:55.642Z,7.64
2024-02-02T20:26:25.546Z,7.42
2024-02-02T20:28:55.925Z,7.76
2024-02-02T20:31:27.945Z,7.51
2024-02-02T20:33:57.881Z,7.76
2024-02-02T20:36:30.903Z,7.80
2024-02-02T20:38:59.665Z,7.57
2024-02-02T20:41:30.568Z,7.51
2024-02-02T20:43:59.313Z,7.70
2024-02-02T20:46:28.105Z,7.78
2024-02-02T20:48:56.938Z,7.73
2024-02-02T20:51:27.347Z,7.73
2024-02-02T20:53:56.042Z,7.58
2024-02-02T20:56:24.941Z,7.51
2024-02-02T20:58:53.626Z,7.57
2024-02-02T21:01:22.699Z,7.63
2024-02-02T21:03:51.680Z,7.66
2024-02-02T21:06:20.693Z,7.42
2024-02-02T21:08:52.469Z,7.59
2024-02-02T21:11:21.627Z,7.07
2024-02-02T21:13:50.276Z,7.52
2024-02-02T21:16:19.334Z,7.48
2024-02-02T21:18:48.770Z,7.67
2024-02-02T21:21:22.177Z,7.39
2024-02-02T21:23:52.960Z,7.49
2024-02-02T21:26:21.603Z,7.37
2024-02-02T21:28:50.120Z,7.14
2024-02-02T21:31:18.979Z,7.65
2024-02-02T21:33:47.656Z,7.58
2024-02-02T21:36:17.199Z,7.60
2024-02-02T21:38:45.932Z,7.30
2024-02-02T21:41:16.171Z,7.52
2024-02-02T21:43:44.601Z,7.60
2024-02-02T21:46:21.380Z,7.57
2024-02-02T21:48:50.529Z,7.46
2024-02-02T21:51:19.271Z,7.77
2024-02-02T21:53:47.940Z,7.52
2024-02-02T21:56:19.599Z,7.74
2024-02-02T21:58:48.188Z,7.80
2024-02-02T22:01:16.925Z,7.16
2024-02-02T22:03:45.759Z,7.80
2024-02-02T22:06:15.964Z,7.84
2024-02-02T22:08:44.774Z,7.68
2024-02-02T22:11:14.514Z,7.70
2024-02-02T22:13:47.898Z,7.41
2024-02-02T22:16:17.210Z,7.66
2024-02-02T22:18:47.124Z,7.72
2024-02-02T22:21:20.058Z,7.69
2024-02-02T22:23:48.716Z,7.72
2024-02-02T22:26:20.541Z,7.66
2024-02-02T22:28:50.824Z,7.79
2024-02-02T22:31:21.369Z,7.67
2024-02-02T22:33:52.093Z,7.71
2024-02-02T22:36:21.984Z,7.73
2024-02-02T22:38:53.440Z,7.72
2024-02-02T22:41:32.561Z,8.01
2024-02-02T22:44:05.045Z,8.07
2024-02-02T22:46:34.604Z,7.98
2024-02-02T22:49:03.991Z,7.66
2024-02-02T22:51:32.816Z,7.87
2024-02-02T22:54:01.426Z,7.60
2024-02-02T22:56:30.010Z,7.88
2024-02-02T22:58:58.588Z,7.78
2024-02-02T23:01:28.535Z,7.75
2024-02-02T23:03:57.613Z,7.88
2024-02-02T23:06:26.337Z,8.35
2024-02-02T23:08:55.103Z,8.19
2024-02-02T23:11:23.813Z,8.01
2024-02-02T23:13:52.389Z,8.23
2024-02-02T23:16:21.196Z,7.99
2024-02-02T23:18:51.707Z,7.95
2024-02-02T23:21:20.366Z,8.08
2024-02-02T23:23:49.577Z,7.89
2024-02-02T23:26:18.424Z,7.58
2024-02-02T23:28:47.133Z,7.69
2024-02-02T23:31:16.828Z,7.73
2024-02-02T23:33:45.896Z,7.18
2024-02-02T23:36:18.810Z,7.74
2024-02-02T23:38:47.499Z,7.77
2024-02-02T23:41:17.801Z,7.79
2024-02-02T23:43:47.085Z,7.75
2024-02-02T23:46:16.009Z,7.90
2024-02-02T23:48:46.356Z,8.10
2024-02-02T23:51:16.582Z,7.84
2024-02-02T23:53:45.463Z,8.28
2024-02-02T23:56:14.135Z,8.28
2024-02-02T23:58:44.104Z,7.94
